createdAt,value
2023-03-29T16:01:51.264Z,6.60
2023-03-29T16:03:24.709Z,4.20
2023-03-29T16:04:56.686Z,5.60
2023-03-29T16:06:28.656Z,5.60
2023-03-29T16:08:00.706Z,4.80
2023-03-29T16:09:32.853Z,3.20
2023-03-29T16:11:07.013Z,5.00
2023-03-29T16:12:39.386Z,3.80
2023-03-29T16:14:13.936Z,3.00
2023-03-29T16:15:45.941Z,3.60
2023-03-29T16:17:17.905Z,4.00
2023-03-29T16:18:49.798Z,5.00
2023-03-29T16:20:21.914Z,3.80
2023-03-29T16:21:54.377Z,7.20
2023-03-29T16:23:26.768Z,5.00
2023-03-29T16:24:58.846Z,6.60
2023-03-29T16:26:31.971Z,3.80
2023-03-29T16:28:05.175Z,3.40
2023-03-29T16:29:37.426Z,3.80
2023-03-29T16:31:13.134Z,6.80
2023-03-29T16:32:46.085Z,4.00
2023-03-29T16:34:19.376Z,4.60
2023-03-29T16:35:51.969Z,6.20
2023-03-29T16:37:24.019Z,5.00
2023-03-29T16:38:55.937Z,4.60
2023-03-29T16:40:28.100Z,4.40
2023-03-29T16:41:59.967Z,4.00
2023-03-29T16:43:31.926Z,5.00
2023-03-29T16:45:04.012Z,4.20
2023-03-29T16:46:35.987Z,3.00
2023-03-29T16:48:13.166Z,6.00
2023-03-29T16:49:48.759Z,4.60
2023-03-29T16:51:21.610Z,8.00
2023-03-29T16:52:53.890Z,6.60
2023-03-29T16:54:31.853Z,6.00
2023-03-29T16:56:04.431Z,5.40
2023-03-29T16:57:36.704Z,5.00
2023-03-29T16:59:09.701Z,5.00
2023-03-29T17:00:41.642Z,6.40
2023-03-29T17:02:13.604Z,2.00
2023-03-29T17:03:45.822Z,4.00
2023-03-29T17:05:18.447Z,4.00
2023-03-29T17:06:50.336Z,6.60
2023-03-29T17:08:22.254Z,5.60
2023-03-29T17:09:54.529Z,10.00
2023-03-29T17:11:28.464Z,15.40
2023-03-29T17:13:01.013Z,25.20
2023-03-29T17:14:33.001Z,48.60
2023-03-29T17:16:05.843Z,46.20
2023-03-29T17:17:38.060Z,65.60
2023-03-29T17:19:10.152Z,65.00
2023-03-29T17:20:42.121Z,77.25
2023-03-29T17:22:14.239Z,74.75
2023-03-29T17:23:46.107Z,83.75
2023-03-29T17:25:18.439Z,93.50
2023-03-29T17:26:50.610Z,96.75
2023-03-29T17:28:23.073Z,99.00
2023-03-29T17:29:55.081Z,103.00
2023-03-29T17:31:27.132Z,105.00
2023-03-29T17:32:59.196Z,109.60
2023-03-29T17:34:33.101Z,119.80
2023-03-29T17:36:05.950Z,120.00
2023-03-29T17:37:38.403Z,109.60
2023-03-29T17:39:10.306Z,124.75
2023-03-29T17:40:42.277Z,112.00
2023-03-29T17:42:14.164Z,124.50
2023-03-29T17:43:46.202Z,133.25
2023-03-29T17:45:18.252Z,134.00
2023-03-29T17:46:50.307Z,134.50
2023-03-29T17:48:23.291Z,147.25
2023-03-29T17:49:55.543Z,150.50
2023-03-29T17:51:27.801Z,157.00
2023-03-29T17:52:59.664Z,150.75
2023-03-29T17:54:31.575Z,144.75
2023-03-29T17:56:03.897Z,151.00
2023-03-29T17:57:35.958Z,145.25
2023-03-29T17:59:07.981Z,166.25
2023-03-29T18:00:39.912Z,149.00
2023-03-29T18:02:22.834Z,144.00
2023-03-29T18:03:54.794Z,150.25
2023-03-29T18:05:26.801Z,153.50
2023-03-29T18:06:58.702Z,151.00
2023-03-29T18:08:31.394Z,136.75
2023-03-29T18:10:03.391Z,143.25
2023-03-29T18:11:36.534Z,146.50
2023-03-29T18:13:11.462Z,178.50
2023-03-29T18:14:43.397Z,131.00
2023-03-29T18:16:15.330Z,132.25
2023-03-29T18:17:47.376Z,110.25
2023-03-29T18:19:19.413Z,104.00
2023-03-29T18:20:51.810Z,92.75
2023-03-29T18:22:24.275Z,79.50
2023-03-29T18:23:56.908Z,75.50
2023-03-29T18:25:29.659Z,65.50
2023-03-29T18:27:01.517Z,68.50
2023-03-29T18:28:33.948Z,63.75
2023-03-29T18:30:06.673Z,61.80
2023-03-29T18:31:38.622Z,60.50
2023-03-29T18:33:10.745Z,78.00
2023-03-29T18:34:42.712Z,77.00
2023-03-29T18:36:14.828Z,82.50
2023-03-29T18:37:47.223Z,77.75
2023-03-29T18:39:19.157Z,79.75
2023-03-29T18:40:51.687Z,78.25
2023-03-29T18:42:23.663Z,77.00
2023-03-29T18:43:57.490Z,75.25
2023-03-29T18:45:29.439Z,73.00
2023-03-29T18:47:01.375Z,69.25
2023-03-29T18:48:39.032Z,70.25
2023-03-29T18:50:12.492Z,67.25
2023-03-29T18:51:44.379Z,66.25
2023-03-29T18:53:16.841Z,62.75
2023-03-29T18:54:48.717Z,67.00
2023-03-29T18:56:20.904Z,59.00
2023-03-29T18:57:52.751Z,61.25
2023-03-29T18:59:24.715Z,61.50
2023-03-29T19:01:04.328Z,58.20
2023-03-29T19:02:36.408Z,54.60
2023-03-29T19:04:08.496Z,58.00
2023-03-29T19:05:40.491Z,58.00
2023-03-29T19:07:12.676Z,51.40
2023-03-29T19:08:44.565Z,53.00
2023-03-29T19:10:17.008Z,50.40
2023-03-29T19:11:49.020Z,43.00
2023-03-29T19:13:20.944Z,48.80
2023-03-29T19:14:52.753Z,45.60
2023-03-29T19:16:28.273Z,51.20
2023-03-29T19:18:00.246Z,42.60
2023-03-29T19:19:32.259Z,44.60
2023-03-29T19:21:04.126Z,43.80
2023-03-29T19:22:37.377Z,44.80
2023-03-29T19:24:09.493Z,38.00
2023-03-29T19:25:41.507Z,46.40
2023-03-29T19:27:13.738Z,39.20
2023-03-29T19:28:46.299Z,32.00
2023-03-29T19:30:20.254Z,44.80
2023-03-29T19:31:52.255Z,37.40
2023-03-29T19:33:24.418Z,34.40
2023-03-29T19:34:56.435Z,33.00
2023-03-29T19:36:28.486Z,32.40
2023-03-29T19:38:00.613Z,38.40
2023-03-29T19:39:32.894Z,34.00
2023-03-29T19:41:07.766Z,28.20
2023-03-29T19:42:40.284Z,34.00
2023-03-29T19:44:13.932Z,23.40
2023-03-29T19:45:46.776Z,32.60
2023-03-29T19:47:18.638Z,32.40
2023-03-29T19:48:54.978Z,32.40
2023-03-29T19:50:26.877Z,26.80
2023-03-29T19:51:59.276Z,21.40
2023-03-29T19:53:31.926Z,32.20
2023-03-29T19:55:04.289Z,27.40
2023-03-29T19:56:36.327Z,26.80
2023-03-29T19:58:09.087Z,34.40
2023-03-29T19:59:43.169Z,22.40
2023-03-29T20:01:15.805Z,26.80
2023-03-29T20:02:47.869Z,30.80
2023-03-29T20:04:21.021Z,29.00
2023-03-29T20:05:52.913Z,29.20
2023-03-29T20:07:24.880Z,25.40
2023-03-29T20:08:57.795Z,31.60
2023-03-29T20:10:29.711Z,34.20
2023-03-29T20:12:01.574Z,51.60
2023-03-29T20:13:38.895Z,59.40
2023-03-29T20:15:11.334Z,79.00
2023-03-29T20:16:44.277Z,96.50
2023-03-29T20:18:16.282Z,97.25
2023-03-29T20:19:48.234Z,85.40
2023-03-29T20:21:20.235Z,118.25
2023-03-29T20:22:54.184Z,125.75
2023-03-29T20:24:26.483Z,122.50
2023-03-29T20:25:58.521Z,120.00
2023-03-29T20:27:31.134Z,121.00
2023-03-29T20:29:03.338Z,131.50
2023-03-29T20:30:36.422Z,133.25
2023-03-29T20:32:09.250Z,143.75
2023-03-29T20:33:44.580Z,132.00
2023-03-29T20:35:16.659Z,140.75
2023-03-29T20:36:48.715Z,139.50
2023-03-29T20:38:21.650Z,132.75
2023-03-29T20:39:53.639Z,139.50
2023-03-29T20:41:26.026Z,143.00
2023-03-29T20:42:58.001Z,135.25
2023-03-29T20:44:32.404Z,138.75
2023-03-29T20:46:05.812Z,137.25
2023-03-29T20:47:42.581Z,128.75
2023-03-29T20:49:14.542Z,137.25
2023-03-29T20:50:49.524Z,142.00
2023-03-29T20:52:22.079Z,155.00
2023-03-29T20:53:54.293Z,186.50
2023-03-29T20:55:26.153Z,172.00
2023-03-29T20:56:58.092Z,165.25
2023-03-29T20:58:30.819Z,164.75
2023-03-29T21:00:12.018Z,166.25
2023-03-29T21:01:44.052Z,165.25
2023-03-29T21:03:16.106Z,158.50
2023-03-29T21:04:52.052Z,161.00
2023-03-29T21:06:26.568Z,151.75
2023-03-29T21:07:58.443Z,160.50
2023-03-29T21:09:31.213Z,147.75
2023-03-29T21:11:03.346Z,154.00
2023-03-29T21:12:35.587Z,143.00
2023-03-29T21:14:07.474Z,144.00
2023-03-29T21:15:40.745Z,132.50
2023-03-29T21:17:12.933Z,127.50
2023-03-29T21:18:44.769Z,133.00
2023-03-29T21:20:16.701Z,137.00
2023-03-29T21:21:52.267Z,123.25
2023-03-29T21:23:24.248Z,116.50
2023-03-29T21:24:56.033Z,120.25
2023-03-29T21:26:28.145Z,125.00
2023-03-29T21:28:00.003Z,116.25
2023-03-29T21:29:32.007Z,111.40
2023-03-29T21:31:06.061Z,106.20
2023-03-29T21:32:38.265Z,113.40
2023-03-29T21:34:10.160Z,105.40
2023-03-29T21:35:42.177Z,102.20
2023-03-29T21:37:15.251Z,102.00
2023-03-29T21:38:47.276Z,97.50
2023-03-29T21:40:19.171Z,100.60
2023-03-29T21:41:51.171Z,91.50
2023-03-29T21:43:23.061Z,87.25
2023-03-29T21:44:54.971Z,90.75
2023-03-29T21:46:26.958Z,83.75
2023-03-29T21:47:58.946Z,86.75
2023-03-29T21:49:31.844Z,82.50
2023-03-29T21:51:04.145Z,81.50
2023-03-29T21:52:37.861Z,79.50
2023-03-29T21:54:11.021Z,78.50
2023-03-29T21:55:42.943Z,80.00
2023-03-29T21:57:14.845Z,77.25
2023-03-29T21:58:46.700Z,80.50
2023-03-29T22:00:18.897Z,74.50
2023-03-29T22:01:51.095Z,73.75
2023-03-29T22:03:23.056Z,75.00
2023-03-29T22:04:54.874Z,72.00
2023-03-29T22:06:26.848Z,72.75
2023-03-29T22:08:00.484Z,76.50
2023-03-29T22:09:33.399Z,81.25
2023-03-29T22:11:08.260Z,71.50
2023-03-29T22:12:41.492Z,74.25
2023-03-29T22:14:14.119Z,70.75
2023-03-29T22:15:47.523Z,68.25
2023-03-29T22:17:19.455Z,63.75
2023-03-29T22:18:52.584Z,65.75
2023-03-29T22:20:24.505Z,64.25
2023-03-29T22:22:01.539Z,60.00
2023-03-29T22:23:33.845Z,56.00
2023-03-29T22:25:06.724Z,63.00
2023-03-29T22:26:38.722Z,68.75
2023-03-29T22:28:10.720Z,78.75
2023-03-29T22:29:42.652Z,82.25
2023-03-29T22:31:16.918Z,81.50
2023-03-29T22:32:48.831Z,81.75
2023-03-29T22:34:20.834Z,80.75
